Time;durP1;ratioP1;P1;durP2;ratioP2;P2;SDS_P1;SDS_P2;PMS_P1;PMS_P2;Temp;Humidity;BMP_temperature;BMP_pressure;BME280_temperature;BME280_humidity;BME280_pressure;Samples;Min_cycle;Max_cycle;Signal;HPM_P1;HPM_P2
2022/10/03 00:01:43;;;;;;;3.13;1.67;;;;;;;13.24;57.26;99879.67;124742;1099;104220;-75
2022/10/03 00:04:31;;;;;;;2.30;1.70;;;;;;;13.18;57.14;99884.84;124468;1099;104389;-75
2022/10/03 00:07:15;;;;;;;3.97;2.00;;;;;;;13.15;57.08;99887.47;124721;1099;102954;-75
2022/10/03 00:09:59;;;;;;;2.77;2.13;;;;;;;13.14;57.47;99880.41;124699;1099;104063;-75
2022/10/03 00:12:52;;;;;;;2.00;1.70;;;;;;;13.12;57.13;99882.15;124742;1099;102749;-75
2022/10/03 00:15:29;;;;;;;3.57;1.60;;;;;;;13.09;57.12;99879.47;124709;1099;104238;-74
2022/10/03 00:18:12;;;;;;;2.10;1.77;;;;;;;13.07;57.50;99883.80;124772;1099;104296;-74
2022/10/03 00:21:01;;;;;;;2.77;2.10;;;;;;;13.05;57.81;99877.64;124686;1099;103025;-74
2022/10/03 00:23:44;;;;;;;3.87;2.03;;;;;;;13.03;57.75;99876.73;124676;1099;104300;-74
2022/10/03 00:26:27;;;;;;;6.70;2.03;;;;;;;13.02;57.79;99875.83;124704;1099;104226;-74
2022/10/03 00:29:21;;;;;;;4.63;1.67;;;;;;;13.02;57.48;99875.83;124739;1098;102703;-75
2022/10/03 00:32:03;;;;;;;4.30;2.10;;;;;;;13.01;57.87;99873.17;124723;1099;102503;-74
2022/10/03 00:34:46;;;;;;;3.00;1.80;;;;;;;12.98;58.08;99875.75;124686;1099;104331;-74
2022/10/03 00:37:29;;;;;;;4.93;2.10;;;;;;;12.94;57.66;99873.08;124677;1099;104261;-74
2022/10/03 00:40:34;;;;;;;5.17;1.87;;;;;;;12.93;57.50;99873.95;124785;1098;101917;-74
2022/10/03 00:43:40;;;;;;;5.33;2.03;;;;;;;12.95;57.90;99868.72;124743;1099;104267;-75
2022/10/03 00:46:56;;;;;;;3.73;2.00;;;;;;;12.94;58.33;99864.30;124722;1099;104185;-75
2022/10/03 00:50:16;;;;;;;3.37;1.80;;;;;;;12.98;58.11;99863.50;124184;1099;103105;-74
2022/10/03 00:53:03;;;;;;;6.00;2.03;;;;;;;13.03;57.89;99856.55;124524;1099;104258;-74
2022/10/03 00:55:46;;;;;;;6.23;2.10;;;;;;;13.07;58.21;99854.83;124725;1099;104063;-74
2022/10/03 00:58:36;;;;;;;3.70;1.92;;;;;;;13.11;58.27;99856.66;124726;1099;102467;-74
2022/10/03 01:01:23;;;;;;;3.03;2.03;;;;;;;13.13;57.94;99857.56;124720;1099;104163;-74
2022/10/03 01:04:09;;;;;;;3.20;2.00;;;;;;;13.15;58.33;99854.95;124715;1099;103567;-74
2022/10/03 01:06:47;;;;;;;2.67;1.87;;;;;;;13.15;58.48;99854.95;124669;1099;104022;-74
2022/10/03 01:09:30;;;;;;;3.90;1.90;;;;;;;13.16;58.36;99860.24;124717;1099;104157;-74
2022/10/03 01:12:20;;;;;;;2.80;1.83;;;;;;;13.20;58.42;99856.80;124689;1099;104570;-74
2022/10/03 01:15:09;;;;;;;4.50;1.83;;;;;;;13.25;58.23;99856.87;124739;1099;104246;-74
2022/10/03 01:18:07;;;;;;;5.63;1.93;;;;;;;13.27;58.68;99850.73;124690;1099;104162;-74
2022/10/03 01:20:45;;;;;;;3.40;1.80;;;;;;;13.28;58.64;99864.81;124618;1099;106931;-74
2022/10/03 01:23:50;;;;;;;2.93;1.97;;;;;;;13.24;58.26;99855.96;124724;1099;104317;-74
2022/10/03 01:26:44;;;;;;;4.60;2.20;;;;;;;13.24;58.61;99858.59;124698;1099;104267;-74
2022/10/03 01:32:17;;;;;;;3.17;1.70;;;;;;;13.18;59.02;99850.60;124207;1102;102883;-74
2022/10/03 01:34:54;;;;;;;3.40;2.10;;;;;;;13.16;58.86;99852.34;124726;1099;104415;-75
2022/10/03 01:37:32;;;;;;;2.07;1.60;;;;;;;13.16;58.82;99852.34;124757;1099;104156;-74
2022/10/03 01:40:16;;;;;;;3.03;1.60;;;;;;;13.17;58.34;99842.70;124782;1099;104257;-74
2022/10/03 01:43:01;;;;;;;2.77;1.70;;;;;;;13.18;58.48;99850.60;124751;1099;104342;-74
2022/10/03 01:45:46;;;;;;;3.23;1.80;;;;;;;13.20;58.83;99848.89;124775;1099;102849;-74
2022/10/03 01:48:26;;;;;;;2.77;2.03;;;;;;;13.21;58.79;99844.50;124701;1099;104194;-74
2022/10/03 01:51:05;;;;;;;2.80;1.90;;;;;;;13.23;58.48;99848.94;124672;1099;105835;-75
2022/10/03 01:53:47;;;;;;;2.77;1.80;;;;;;;13.25;58.95;99841.94;124685;1099;104230;-75
2022/10/03 01:56:27;;;;;;;2.53;1.50;;;;;;;13.27;59.08;99849.86;124725;1099;104229;-74
2022/10/03 01:59:06;;;;;;;3.87;1.70;;;;;;;13.28;58.81;99846.38;124672;1099;103645;-74
2022/10/03 02:01:46;;;;;;;2.00;1.70;;;;;;;13.30;58.93;99845.52;124651;1099;107127;-74
2022/10/03 02:04:29;;;;;;;3.63;2.00;;;;;;;13.34;58.98;99848.22;124670;1099;104284;-74
2022/10/03 02:07:12;;;;;;;4.53;1.90;;;;;;;13.35;58.37;99845.61;124696;1099;104246;-74
2022/10/03 02:09:58;;;;;;;2.60;1.90;;;;;;;13.35;58.77;99836.83;124703;1099;104265;-74
2022/10/03 02:12:35;;;;;;;3.63;2.07;;;;;;;13.37;59.08;99845.62;124699;1098;104342;-74
2022/10/03 02:15:17;;;;;;;4.13;1.63;;;;;;;13.35;58.87;99842.09;124685;1099;104045;-74
2022/10/03 02:17:57;;;;;;;2.47;1.70;;;;;;;13.34;58.52;99850.86;124762;1099;104235;-75
2022/10/03 02:20:40;;;;;;;2.90;1.60;;;;;;;13.32;59.00;99848.17;124688;1099;102874;-74
2022/10/03 02:23:37;;;;;;;2.77;1.90;;;;;;;13.30;58.94;99847.27;124683;1099;104845;-75
2022/10/03 02:26:33;;;;;;;5.13;1.83;;;;;;;13.26;59.08;99843.72;124707;1099;104210;-74
2022/10/03 02:29:31;;;;;;;1.63;1.53;;;;;;;13.22;58.78;99843.66;124624;1099;104153;-74
2022/10/03 02:32:41;;;;;;;4.23;1.80;;;;;;;13.17;59.18;99843.58;124771;1099;104354;-74
2022/10/03 02:35:28;;;;;;;3.40;1.90;;;;;;;13.15;58.60;99842.69;124566;1099;104265;-74
2022/10/03 02:38:18;;;;;;;6.33;1.80;;;;;;;13.11;58.92;99847.00;124700;1099;104166;-74
2022/10/03 02:41:22;;;;;;;2.50;1.80;;;;;;;13.09;58.58;99845.23;124662;1099;104238;-74
2022/10/03 02:44:21;;;;;;;1.77;1.55;;;;;;;13.04;59.20;99847.80;124689;1099;104166;-74
2022/10/03 02:47:44;;;;;;;2.17;1.60;;;;;;;13.03;58.67;99847.77;124692;1099;102264;-74
2022/10/03 02:50:41;;;;;;;2.83;1.87;;;;;;;13.02;59.08;99845.98;124708;1099;104236;-74
2022/10/03 02:53:43;;;;;;;2.47;1.50;;;;;;;13.02;58.66;99849.49;124734;1098;104163;-75
2022/10/03 02:56:51;;;;;;;3.30;1.67;;;;;;;13.03;58.95;99851.27;124500;1099;102963;-74
2022/10/03 02:59:48;;;;;;;2.40;1.80;;;;;;;13.05;58.90;99846.03;124637;1099;104372;-74
2022/10/03 03:02:48;;;;;;;2.60;1.40;;;;;;;13.06;59.32;99848.69;124702;1099;104267;-74
2022/10/03 03:05:36;;;;;;;4.00;1.67;;;;;;;13.06;58.77;99853.95;124525;1099;104310;-75
2022/10/03 03:08:34;;;;;;;4.03;1.90;;;;;;;13.06;59.30;99850.45;124676;1099;102839;-74
2022/10/03 03:11:29;;;;;;;1.50;1.40;;;;;;;13.09;59.29;99856.64;124727;1099;103141;-74
2022/10/03 03:14:43;;;;;;;5.87;1.60;;;;;;;13.09;59.31;99845.23;124703;1099;104235;-75
2022/10/03 03:17:26;;;;;;;1.57;1.47;;;;;;;13.12;58.96;99847.91;124722;1099;102883;-74
2022/10/03 03:20:17;;;;;;;2.97;1.60;;;;;;;13.14;59.22;99848.80;124687;1099;104187;-74
2022/10/03 03:23:18;;;;;;;1.87;1.60;;;;;;;13.17;59.34;99846.22;124820;1099;104185;-74
2022/10/03 03:26:15;;;;;;;3.53;1.77;;;;;;;13.21;59.54;99849.77;124755;1099;104333;-75
2022/10/03 03:28:59;;;;;;;5.33;1.93;;;;;;;13.21;59.27;99855.04;124646;1099;104223;-74
2022/10/03 03:31:40;;;;;;;2.22;1.52;;;;;;;13.21;59.18;99862.94;124689;1099;104264;-74
2022/10/03 03:34:22;;;;;;;6.20;2.10;;;;;;;13.21;59.44;99861.19;124808;1098;104261;-75
2022/10/03 03:37:02;;;;;;;3.83;1.97;;;;;;;13.25;59.22;99852.47;124800;1099;104303;-75
2022/10/03 03:39:57;;;;;;;4.60;2.15;;;;;;;13.29;59.60;99849.03;124678;1098;104239;-75
2022/10/03 03:42:47;;;;;;;4.03;1.90;;;;;;;13.34;59.17;99854.40;124643;1099;104232;-74
2022/10/03 03:45:43;;;;;;;2.97;1.70;;;;;;;13.37;59.62;99857.08;124764;1099;104328;-74
2022/10/03 03:48:38;;;;;;;8.53;1.97;;;;;;;13.40;59.44;99853.58;124709;1099;104202;-74
2022/10/03 03:51:32;;;;;;;4.43;2.00;;;;;;;13.41;59.54;99850.09;124719;1098;104300;-74
2022/10/03 03:54:46;;;;;;;5.20;2.00;;;;;;;13.43;59.51;99845.72;124741;1099;118960;-75
2022/10/03 03:57:50;;;;;;;4.57;1.70;;;;;;;13.44;59.40;99850.13;124698;1099;102986;-75
2022/10/03 04:00:30;;;;;;;4.20;1.97;;;;;;;13.45;59.29;99847.52;124715;1098;104241;-75
2022/10/03 04:03:17;;;;;;;3.05;1.70;;;;;;;13.47;59.17;99852.81;124715;1099;103344;-75
2022/10/03 04:06:04;;;;;;;4.83;1.80;;;;;;;13.48;59.59;99842.29;124786;1098;102161;-74
2022/10/03 04:09:04;;;;;;;4.60;1.87;;;;;;;13.49;58.94;99843.16;124712;1099;104207;-74
2022/10/03 04:11:50;;;;;;;2.33;1.60;;;;;;;13.49;59.03;99835.26;124764;1099;104361;-74
2022/10/03 04:14:55;;;;;;;2.47;1.60;;;;;;;13.52;59.10;99834.42;124677;1099;104236;-74
2022/10/03 04:20:59;;;;;;;4.37;1.80;;;;;;;13.52;59.24;99845.84;124723;1099;103454;-74
2022/10/03 04:23:50;;;;;;;4.53;1.57;;;;;;;13.55;59.46;99839.73;124714;1099;104730;-75
2022/10/03 04:26:37;;;;;;;4.10;1.90;;;;;;;13.55;59.43;99840.61;124702;1099;104201;-75
2022/10/03 04:29:33;;;;;;;3.63;1.83;;;;;;;13.58;59.68;99834.50;124703;1099;102871;-75
2022/10/03 04:32:15;;;;;;;6.63;1.80;;;;;;;13.62;59.24;99841.59;124716;1099;104252;-75
2022/10/03 04:35:04;;;;;;;10.47;1.90;;;;;;;13.65;59.33;99834.60;124674;1099;104166;-75
2022/10/03 04:37:44;;;;;;;8.27;2.37;;;;;;;13.70;59.44;99842.57;124687;1099;104252;-75
2022/10/03 04:40:32;;;;;;;5.63;1.77;;;;;;;13.74;59.67;99846.12;124654;1099;101845;-76
2022/10/03 04:43:13;;;;;;;5.07;1.80;;;;;;;13.76;59.66;99834.73;124817;1099;102283;-75
2022/10/03 04:46:08;;;;;;;7.67;2.03;;;;;;;13.79;59.08;99840.05;124650;1099;104169;-75
2022/10/03 04:48:41;;;;;;;;;;;;;;;13.83;59.42;99840.95;124732;1099;102294;-75
2022/10/03 04:51:23;;;;;;;10.17;3.00;;;;;;;13.84;59.27;99840.11;124666;1099;104287;-76
2022/10/03 04:54:03;;;;;;;18.73;3.07;;;;;;;13.88;59.50;99838.38;124669;1099;102686;-75
2022/10/03 04:56:44;;;;;;;13.57;2.13;;;;;;;13.91;59.16;99835.78;124744;1098;104210;-74
2022/10/03 04:59:35;;;;;;;2.77;1.60;;;;;;;13.95;58.78;99834.95;124662;1099;101940;-75
2022/10/03 05:02:21;;;;;;;7.57;2.23;;;;;;;13.98;59.22;99830.59;124712;1099;102714;-75
2022/10/03 05:05:20;;;;;;;8.43;2.00;;;;;;;14.03;58.65;99833.28;124690;1099;104306;-75
2022/10/03 05:08:00;;;;;;;3.30;1.50;;;;;;;14.09;58.99;99832.47;124548;1099;102960;-75
2022/10/03 05:10:50;;;;;;;3.50;1.70;;;;;;;14.13;59.14;99831.61;124711;1099;104644;-75
2022/10/03 05:13:37;;;;;;;10.70;1.97;;;;;;;14.20;59.28;99831.70;124729;1099;104624;-75
2022/10/03 05:16:18;;;;;;;4.87;1.70;;;;;;;14.26;58.65;99822.97;124751;1099;102117;-75
2022/10/03 05:18:56;;;;;;;11.17;1.63;;;;;;;14.35;58.43;99832.71;124731;1099;102609;-75
2022/10/03 05:21:35;;;;;;;9.50;2.20;;;;;;;14.43;59.26;99830.14;124701;1099;104235;-75
2022/10/03 05:24:19;;;;;;;2.53;1.67;;;;;;;14.48;58.39;99828.45;124701;1099;104245;-75
2022/10/03 05:27:05;;;;;;;3.10;1.60;;;;;;;14.53;58.66;99824.96;124694;1097;104225;-75
2022/10/03 05:29:41;;;;;;;7.90;1.97;;;;;;;14.62;58.44;99828.61;124703;1099;102469;-75
2022/10/03 05:32:25;;;;;;;2.07;1.50;;;;;;;14.68;59.09;99832.17;124764;1099;104259;-75
2022/10/03 05:35:24;;;;;;;5.35;1.72;;;;;;;14.76;58.34;99831.34;124715;1099;104220;-75
2022/10/03 05:38:13;;;;;;;3.97;2.03;;;;;;;14.84;58.98;99824.38;124749;1099;104237;-76
2022/10/03 05:41:00;;;;;;;3.10;1.80;;;;;;;14.91;58.15;99824.44;124771;1099;104217;-77
2022/10/03 05:43:51;;;;;;;1.93;1.70;;;;;;;15.00;58.78;99831.52;124763;1099;102578;-76
2022/10/03 05:46:38;;;;;;;2.97;1.60;;;;;;;15.03;58.85;99834.19;124746;1098;104162;-76
2022/10/03 05:49:32;;;;;;;6.53;2.30;;;;;;;15.05;58.65;99835.11;124712;1099;104336;-75
2022/10/03 05:52:24;;;;;;;3.43;1.90;;;;;;;15.08;58.49;99831.58;124751;1099;104267;-75
2022/10/03 05:55:25;;;;;;;3.43;2.10;;;;;;;15.12;57.51;99835.14;124738;1099;104172;-75
2022/10/03 05:58:45;;;;;;;6.27;1.87;;;;;;;15.14;58.07;99838.67;124835;1099;104207;-75
2022/10/03 06:02:00;;;;;;;7.80;2.60;;;;;;;15.17;57.50;99829.00;125123;1099;104651;-76
2022/10/03 06:05:09;;;;;;;7.27;2.23;;;;;;;15.25;57.72;99818.47;125964;1097;104157;-77
2022/10/03 06:07:57;;;;;;;6.23;1.93;;;;;;;15.30;58.15;99795.58;124798;1099;104254;-76
2022/10/03 06:10:56;;;;;;;4.57;2.00;;;;;;;15.32;57.75;99785.92;124775;1099;103304;-76
2022/10/03 06:13:46;;;;;;;5.40;2.17;;;;;;;15.35;56.87;99808.83;125319;1099;103697;-77
2022/10/03 06:16:33;;;;;;;5.13;2.30;;;;;;;15.37;57.06;99829.11;125255;1099;102915;-77
2022/10/03 06:19:31;;;;;;;6.40;3.33;;;;;;;15.42;57.13;99837.07;125166;1098;102891;-77
2022/10/03 06:22:43;;;;;;;14.83;7.80;;;;;;;15.45;57.43;99848.53;125423;1099;103305;-74
2022/10/03 06:25:49;;;;;;;3.87;2.00;;;;;;;15.42;56.24;99853.81;125592;1099;104200;-75
2022/10/03 06:29:03;;;;;;;3.83;1.60;;;;;;;15.41;56.35;99852.06;124859;1099;104243;-76
2022/10/03 06:32:06;;;;;;;4.70;1.75;;;;;;;15.43;56.61;99852.94;124808;1099;104191;-74
2022/10/03 06:35:00;;;;;;;5.10;1.67;;;;;;;15.50;56.08;99860.91;124789;1099;104248;-76
2022/10/03 06:38:03;;;;;;;2.87;1.50;;;;;;;15.54;56.38;99863.58;124655;1099;104341;-75
2022/10/03 06:41:14;;;;;;;3.43;1.53;;;;;;;15.55;56.19;99861.80;125316;1099;104287;-75
2022/10/03 06:44:32;;;;;;;2.37;1.70;;;;;;;15.54;56.56;99867.99;124812;1099;104249;-76
2022/10/03 06:47:46;;;;;;;5.20;1.57;;;;;;;15.55;55.95;99877.67;124591;1099;103476;-75
2022/10/03 06:50:45;;;;;;;3.00;1.30;;;;;;;15.55;56.52;99878.58;124664;1099;104188;-76
2022/10/03 06:53:43;;;;;;;3.47;1.43;;;;;;;15.57;55.81;99887.39;125365;1099;102207;-76
2022/10/03 06:57:06;;;;;;;9.20;2.37;;;;;;;15.64;56.17;99904.17;124682;1099;102290;-76
2022/10/03 07:00:02;;;;;;;9.80;2.37;;;;;;;15.63;56.17;99908.58;124757;1099;104200;-76
2022/10/03 07:03:02;;;;;;;7.37;2.50;;;;;;;15.63;55.44;99907.70;124808;1099;104319;-75
2022/10/03 07:06:14;;;;;;;4.63;2.50;;;;;;;15.66;56.16;99915.66;124777;1099;104220;-76
2022/10/03 07:09:29;;;;;;;5.33;2.30;;;;;;;15.69;55.89;99915.68;124771;1099;102154;-77
2022/10/03 07:12:39;;;;;;;5.20;2.13;;;;;;;15.69;56.17;99914.77;125973;1098;104256;-77
2022/10/03 07:15:48;;;;;;;8.00;2.10;;;;;;;15.72;56.07;99902.47;124846;1098;104226;-78
2022/10/03 07:19:00;;;;;;;3.17;2.00;;;;;;;15.77;55.08;99894.59;124932;1099;102977;-78
2022/10/03 07:22:23;;;;;;;5.03;2.13;;;;;;;15.83;55.83;99893.72;124841;1099;102906;-79
2022/10/03 07:25:28;;;;;;;4.97;1.43;;;;;;;15.87;55.50;99888.45;125638;1099;104229;-78
2022/10/03 07:28:37;;;;;;;4.00;1.80;;;;;;;15.91;54.42;99890.23;125671;1099;104344;-76
2022/10/03 07:31:19;;;;;;;2.23;1.73;;;;;;;15.96;54.10;99885.84;125459;1099;102941;-76
2022/10/03 07:34:21;;;;;;;6.40;1.90;;;;;;;16.06;53.93;99886.75;124837;1099;102867;-77
2022/10/03 07:40:26;;;;;;;4.40;1.60;;;;;;;16.34;54.31;99877.12;124615;1099;102107;-76
2022/10/03 07:43:31;;;;;;;3.43;1.80;;;;;;;16.57;53.78;99881.59;125899;1098;102294;-76
2022/10/03 07:46:32;;;;;;;2.70;1.62;;;;;;;16.82;53.48;99882.48;124787;1099;104281;-76
2022/10/03 07:49:30;;;;;;;4.87;2.00;;;;;;;16.98;52.41;99885.17;124869;1099;102187;-75
2022/10/03 07:52:37;;;;;;;3.23;2.00;;;;;;;16.98;52.72;99893.99;124749;1099;110189;-77
2022/10/03 07:55:44;;;;;;;4.67;1.97;;;;;;;16.98;52.71;99885.17;125613;1099;102203;-76
2022/10/03 07:58:53;;;;;;;5.87;2.40;;;;;;;17.03;53.07;99886.95;125409;1099;104210;-76
2022/10/03 08:01:47;;;;;;;6.40;2.20;;;;;;;16.98;52.85;99893.13;124892;1099;102215;-77
2022/10/03 08:04:55;;;;;;;7.47;2.63;;;;;;;16.88;52.10;99886.95;125766;1098;102762;-76
2022/10/03 08:07:53;;;;;;;6.27;2.60;;;;;;;16.84;53.39;99869.23;124906;1099;104163;-79
2022/10/03 08:11:02;;;;;;;7.67;2.73;;;;;;;16.92;53.16;99879.87;124786;1099;103577;-77
2022/10/03 08:13:47;;;;;;;4.50;2.50;;;;;;;17.05;52.70;99877.22;124806;1099;104622;-77
2022/10/03 08:16:38;;;;;;;4.50;2.23;;;;;;;17.04;52.57;99877.22;124875;1099;103036;-76
2022/10/03 08:19:27;;;;;;;8.27;2.13;;;;;;;17.03;52.46;99886.05;124769;1099;104680;-77
2022/10/03 08:22:12;;;;;;;7.87;2.37;;;;;;;17.08;53.10;99897.55;124766;1099;102781;-75
2022/10/03 08:25:11;;;;;;;4.27;2.00;;;;;;;17.10;51.92;99906.38;124841;1099;102006;-75
2022/10/03 08:28:10;;;;;;;6.20;1.87;;;;;;;16.89;51.76;99902.84;126148;1098;104169;-75
2022/10/03 08:31:05;;;;;;;5.90;2.05;;;;;;;16.80;52.27;99907.23;124768;1099;105483;-75
2022/10/03 08:34:18;;;;;;;8.00;3.07;;;;;;;16.82;51.58;99914.28;124814;1098;104397;-75
2022/10/03 08:37:28;;;;;;;4.17;2.30;;;;;;;16.86;51.73;99918.74;124704;1099;102483;-74
2022/10/03 08:40:40;;;;;;;9.40;4.07;;;;;;;17.01;51.96;99916.97;124604;1099;104173;-74
2022/10/03 08:43:54;;;;;;;8.80;3.50;;;;;;;17.20;51.78;99918.75;125152;1099;111474;-73
2022/10/03 08:47:02;;;;;;;9.93;4.40;;;;;;;17.18;51.04;99914.33;124760;1099;102208;-74
2022/10/03 08:50:06;;;;;;;5.67;1.90;;;;;;;16.96;50.80;99929.35;124804;1099;104268;-74
2022/10/03 08:52:57;;;;;;;4.07;1.57;;;;;;;16.73;51.25;99927.52;124762;1099;104389;-75
2022/10/03 08:55:57;;;;;;;2.30;1.57;;;;;;;16.62;51.18;99926.63;124786;1099;102582;-77
2022/10/03 08:59:05;;;;;;;4.20;1.80;;;;;;;16.48;50.78;99926.59;125875;1099;105168;-77
2022/10/03 09:02:09;;;;;;;3.40;1.57;;;;;;;16.39;51.81;99916.84;124998;1097;104274;-80
2022/10/03 09:05:21;;;;;;;2.93;1.43;;;;;;;16.26;51.15;99920.36;124904;1099;104140;-79
2022/10/03 09:08:27;;;;;;;3.47;1.50;;;;;;;16.20;51.44;99923.86;124917;1099;104201;-79
2022/10/03 09:11:29;;;;;;;2.57;1.73;;;;;;;16.10;51.39;99916.78;126121;1098;102213;-76
2022/10/03 09:14:31;;;;;;;3.60;1.57;;;;;;;15.93;51.35;99912.29;124950;1098;110848;-79
2022/10/03 09:17:39;;;;;;;2.03;1.30;;;;;;;15.88;51.89;99906.10;125440;1099;104156;-77
2022/10/03 09:20:42;;;;;;;2.50;1.73;;;;;;;15.88;51.80;99902.55;125669;1099;102939;-78
2022/10/03 09:23:46;;;;;;;6.67;1.50;;;;;;;15.79;52.98;99898.99;125599;1099;102110;-77
2022/10/03 09:26:56;;;;;;;6.43;1.83;;;;;;;15.81;53.30;99912.23;124739;1099;104217;-77
2022/10/03 09:30:05;;;;;;;5.07;1.67;;;;;;;15.80;54.29;99908.70;124828;1099;104790;-77
2022/10/03 09:33:07;;;;;;;2.57;1.63;;;;;;;15.67;54.52;99905.95;124841;1099;102804;-77
2022/10/03 09:36:04;;;;;;;5.20;1.83;;;;;;;15.64;54.22;99905.08;124778;1099;103224;-77
2022/10/03 09:39:07;;;;;;;3.23;1.70;;;;;;;15.59;53.91;99903.27;124835;1099;104371;-77
2022/10/03 09:42:18;;;;;;;3.87;1.70;;;;;;;15.55;54.64;99896.18;124840;1099;104748;-77
2022/10/03 09:45:27;;;;;;;3.70;1.90;;;;;;;15.48;54.55;99871.47;124881;1099;110727;-77
2022/10/03 09:48:31;;;;;;;3.97;1.30;;;;;;;15.42;54.93;99880.24;124849;1097;103213;-75
2022/10/03 09:51:33;;;;;;;1.47;1.10;;;;;;;15.45;55.22;99888.19;124758;1099;104156;-77
2022/10/03 09:54:43;;;;;;;3.70;1.50;;;;;;;15.48;55.10;99886.47;124771;1099;102656;-75
2022/10/03 09:57:56;;;;;;;1.97;1.37;;;;;;;15.49;54.73;99882.92;124808;1099;102292;-74
2022/10/03 10:00:31;;;;;;;2.40;1.60;;;;;;;15.57;53.95;99881.23;124794;1099;102777;-76
2022/10/03 10:03:27;;;;;;;2.60;1.30;;;;;;;15.62;54.06;99877.72;124820;1099;104217;-76
2022/10/03 10:06:30;;;;;;;2.40;1.50;;;;;;;15.72;54.34;99870.73;124655;1099;104305;-75
2022/10/03 10:09:44;;;;;;;3.30;1.70;;;;;;;15.84;54.35;99863.75;124749;1099;102756;-75
2022/10/03 10:13:05;;;;;;;1.43;1.13;;;;;;;16.01;53.89;99872.63;124775;1099;104248;-74
2022/10/03 10:16:25;;;;;;;4.75;1.85;;;;;;;16.12;53.28;99870.02;124731;1099;111952;-75
2022/10/03 10:19:23;;;;;;;1.93;1.60;;;;;;;16.26;53.60;99865.64;124735;1098;104267;-75
2022/10/03 10:22:31;;;;;;;2.97;1.50;;;;;;;16.36;52.57;99863.89;124753;1099;102807;-75
2022/10/03 10:25:41;;;;;;;2.27;1.00;;;;;;;16.38;52.44;99851.55;124655;1099;104900;-76
2022/10/03 10:28:46;;;;;;;2.30;1.23;;;;;;;16.43;52.63;99855.09;124616;1099;104169;-76
2022/10/03 10:31:51;;;;;;;1.90;1.20;;;;;;;16.44;52.79;99842.72;124919;1099;102248;-76
2022/10/03 10:34:41;;;;;;;;;;;;;;;16.39;52.45;99841.84;124632;1099;104322;-75
2022/10/03 10:37:53;;;;;;;1.10;1.00;;;;;;;16.46;51.80;99840.98;124746;1099;104216;-75
2022/10/03 10:41:12;;;;;;;3.10;1.20;;;;;;;16.57;52.02;99828.62;124801;1099;104246;-75
2022/10/03 10:44:29;;;;;;;2.77;1.50;;;;;;;16.70;51.13;99825.10;124762;1099;104192;-76
2022/10/03 10:47:27;;;;;;;5.13;1.80;;;;;;;16.67;51.62;99826.84;124709;1099;111829;-76
2022/10/03 10:50:28;;;;;;;2.07;1.40;;;;;;;16.63;51.36;99825.10;124649;1099;102852;-77
2022/10/03 10:53:40;;;;;;;5.80;1.40;;;;;;;16.54;50.69;99820.67;124790;1099;104201;-77
2022/10/03 10:56:44;;;;;;;2.87;1.30;;;;;;;16.48;50.90;99821.54;124609;1097;102395;-76
2022/10/03 10:59:46;;;;;;;5.20;1.17;;;;;;;16.61;50.49;99813.60;124811;1099;104162;-76
2022/10/03 11:02:54;;;;;;;2.53;1.30;;;;;;;16.75;50.46;99817.16;124544;1099;102711;-77
2022/10/03 11:05:50;;;;;;;2.20;1.00;;;;;;;16.76;49.64;99802.13;124775;1099;102803;-75
2022/10/03 11:08:56;;;;;;;3.23;1.27;;;;;;;16.72;49.05;99801.26;124809;1099;104166;-77
2022/10/03 11:12:02;;;;;;;1.20;0.80;;;;;;;16.80;48.79;99807.43;124804;1099;104242;-76
2022/10/03 11:15:16;;;;;;;2.87;1.10;;;;;;;16.89;48.57;99786.25;126483;1097;104207;-76
2022/10/03 11:18:24;;;;;;;3.95;1.20;;;;;;;17.05;49.40;99788.88;124800;1099;111527;-77
2022/10/03 11:21:53;;;;;;;4.33;1.00;;;;;;;17.21;48.55;99785.28;125857;1098;101999;-76
2022/10/03 11:25:07;;;;;;;3.03;0.93;;;;;;;17.39;49.06;99770.20;124316;1102;102288;-76
2022/10/03 11:28:20;;;;;;;2.37;0.90;;;;;;;17.52;47.66;99766.63;125177;1098;104267;-75
2022/10/03 11:31:19;;;;;;;6.53;1.70;;;;;;;17.57;47.33;99764.81;124399;1099;104323;-76
2022/10/03 11:34:22;;;;;;;2.63;1.37;;;;;;;17.66;47.22;99776.30;124731;1099;101889;-76
2022/10/03 11:37:21;;;;;;;2.27;1.13;;;;;;;17.79;47.34;99770.02;124341;1099;104804;-77
2022/10/03 11:40:03;;;;;;;1.20;0.83;;;;;;;17.85;46.19;99764.68;124779;1099;104153;-77
2022/10/03 11:42:55;;;;;;;1.57;1.10;;;;;;;17.86;45.02;99770.89;124859;1099;101979;-77
2022/10/03 11:45:47;;;;;;;3.73;1.00;;;;;;;17.92;45.48;99776.16;124772;1099;104254;-77
2022/10/03 11:48:34;;;;;;;2.50;1.20;;;;;;;17.90;44.29;99768.25;125562;1099;104264;-78
2022/10/03 11:51:17;;;;;;;4.53;1.23;;;;;;;17.87;44.24;99781.50;125166;1099;104267;-77
2022/10/03 11:53:58;;;;;;;6.63;1.50;;;;;;;17.88;45.37;99763.79;124790;1099;103354;-78
2022/10/03 11:56:49;;;;;;;2.40;1.40;;;;;;;17.90;44.64;99767.34;124923;1098;104386;-78
2022/10/03 11:59:45;;;;;;;2.57;1.30;;;;;;;17.92;43.97;99766.45;124783;1099;104239;-78
2022/10/03 12:02:37;;;;;;;2.33;1.30;;;;;;;17.98;44.32;99764.64;124840;1099;104159;-76
2022/10/03 12:05:23;;;;;;;2.62;1.45;;;;;;;18.06;44.17;99773.42;124851;1099;102761;-76
2022/10/03 12:11:17;;;;;;;2.03;1.20;;;;;;;18.15;43.60;99776.02;126079;1098;104734;-77
2022/10/03 12:14:22;;;;;;;2.00;1.40;;;;;;;18.25;44.44;99771.55;124793;1099;102975;-76
2022/10/03 12:17:15;;;;;;;6.10;1.57;;;;;;;18.37;44.06;99765.25;125815;1098;104274;-77
2022/10/03 12:20:04;;;;;;;1.47;1.00;;;;;;;18.26;43.56;99766.23;125704;1099;104217;-76
2022/10/03 12:22:51;;;;;;;2.13;1.10;;;;;;;18.18;43.91;99773.34;124877;1099;101929;-77
2022/10/03 12:25:37;;;;;;;1.70;0.97;;;;;;;18.09;42.86;99763.70;124852;1099;104325;-77
2022/10/03 12:28:27;;;;;;;1.67;1.50;;;;;;;18.03;43.76;99765.48;125605;1099;104229;-77
2022/10/03 12:31:07;;;;;;;2.43;1.10;;;;;;;17.96;42.44;99773.48;124875;1099;104191;-78
2022/10/03 12:34:10;;;;;;;1.90;1.00;;;;;;;17.91;43.13;99756.72;125670;1099;102833;-80
2022/10/03 12:36:53;;;;;;;5.10;1.37;;;;;;;17.89;42.62;99766.47;125639;1099;102253;-80
2022/10/03 12:39:39;;;;;;;2.20;1.00;;;;;;;17.91;43.08;99769.12;125640;1099;108038;-78
2022/10/03 12:45:40;;;;;;;;;;;;;;;;;;;;;
2022/10/03 12:48:42;;;;;;;3.30;1.17;;;;;;;17.89;42.79;99763.81;125641;1099;104201;-77
2022/10/03 12:51:35;;;;;;;9.33;4.27;;;;;;;17.89;42.22;99771.78;125805;1099;104262;-76
2022/10/03 12:54:48;;;;;;;11.20;4.57;;;;;;;17.88;42.95;99769.10;124655;1099;104245;-76
2022/10/03 12:57:55;;;;;;;8.15;3.80;;;;;;;17.87;42.16;99759.36;125618;1099;104191;-77
2022/10/03 13:00:56;;;;;;;4.10;1.60;;;;;;;17.87;42.79;99764.67;124826;1098;111571;-77
2022/10/03 13:03:50;;;;;;;6.13;2.80;;;;;;;17.88;43.16;99758.48;124773;1098;104255;-77
2022/10/03 13:06:57;;;;;;;3.53;1.70;;;;;;;17.84;42.58;99764.69;124800;1099;104265;-76
2022/10/03 13:10:14;;;;;;;2.53;1.23;;;;;;;17.82;42.88;99758.52;124807;1099;102833;-78
2022/10/03 13:13:08;;;;;;;3.97;1.40;;;;;;;17.80;43.08;99766.48;125069;1099;102282;-79
2022/10/03 13:16:21;;;;;;;2.70;1.30;;;;;;;17.76;43.25;99759.42;125617;1099;104217;-78
2022/10/03 13:19:33;;;;;;;1.53;1.40;;;;;;;17.72;43.42;99763.88;125502;1099;104217;-78
2022/10/03 13:22:21;;;;;;;;;;;;;;;17.60;43.32;99769.23;125101;1099;104325;-77
2022/10/03 13:25:20;;;;;;;3.40;1.40;;;;;;;17.52;43.35;99763.09;125002;1099;102820;-77
2022/10/03 13:28:02;;;;;;;3.90;1.30;;;;;;;17.46;43.50;99765.77;125684;1099;103626;-77
2022/10/03 13:30:45;;;;;;;3.22;1.42;;;;;;;17.43;43.20;99775.48;124725;1099;104501;-78
2022/10/03 13:33:22;;;;;;;2.40;1.30;;;;;;;17.48;43.53;99767.52;124731;1099;104217;-77
2022/10/03 13:36:12;;;;;;;3.70;1.20;;;;;;;17.53;43.33;99779.00;124842;1099;104189;-78
2022/10/03 13:39:04;;;;;;;4.93;1.50;;;;;;;17.57;43.73;99778.08;124837;1099;104672;-78
2022/10/03 13:42:09;;;;;;;3.00;1.53;;;;;;;17.60;43.34;99759.50;124794;1099;102423;-78
2022/10/03 13:44:51;;;;;;;3.58;1.40;;;;;;;17.72;43.57;99769.18;124851;1099;104156;-77
2022/10/03 13:47:35;;;;;;;2.57;1.53;;;;;;;17.78;43.44;99768.28;124852;1099;102798;-76